createdAt,value
2019-04-10T00:01:01.580Z,98579.66
2019-04-10T00:03:36.726Z,98576.64
2019-04-10T00:06:04.749Z,98581.28
2019-04-10T00:08:36.557Z,98577.70
2019-04-10T00:11:06.581Z,98585.61
2019-04-10T00:13:40.858Z,98581.13
2019-04-10T00:16:15.802Z,98583.63
2019-04-10T00:18:46.383Z,98585.23
2019-04-10T00:21:17.523Z,98579.00
2019-04-10T00:23:47.151Z,98582.23
2019-04-10T00:26:22.231Z,98589.13
2019-04-10T00:28:52.335Z,98590.45
2019-04-10T00:31:24.592Z,98587.11
2019-04-10T00:33:54.860Z,98588.03
2019-04-10T00:36:31.134Z,98592.58
2019-04-10T00:39:00.610Z,98586.59
2019-04-10T00:41:30.359Z,98587.77
2019-04-10T00:44:00.113Z,98588.91
2019-04-10T00:46:32.558Z,98587.19
2019-04-10T00:49:02.837Z,98590.75
2019-04-10T00:51:33.158Z,98585.98
2019-04-10T00:54:07.819Z,98583.55
2019-04-10T00:56:39.401Z,98591.29
2019-04-10T00:59:10.009Z,98584.17
2019-04-10T01:01:40.249Z,98582.96
2019-04-10T01:04:10.662Z,98584.76
2019-04-10T01:06:41.684Z,98581.77
2019-04-10T01:09:11.209Z,98583.20
2019-04-10T01:11:41.466Z,98579.87
2019-04-10T01:14:11.720Z,98574.47
2019-04-10T01:16:41.795Z,98576.34
2019-04-10T01:19:12.008Z,98569.91
2019-04-10T01:21:42.540Z,98574.14
2019-04-10T01:24:19.625Z,98570.77
2019-04-10T01:26:49.674Z,98567.59
2019-04-10T01:29:19.699Z,98565.48
2019-04-10T01:31:49.700Z,98557.67
2019-04-10T01:34:21.091Z,98568.39
2019-04-10T01:36:52.337Z,98564.25
2019-04-10T01:39:30.545Z,98563.30
2019-04-10T01:42:03.988Z,98562.47
2019-04-10T01:44:33.691Z,98564.64
2019-04-10T01:47:10.926Z,98558.42
2019-04-10T01:49:42.430Z,98558.63
2019-04-10T01:52:15.111Z,98558.66
2019-04-10T01:54:47.227Z,98554.46
2019-04-10T01:57:19.885Z,98558.55
2019-04-10T01:59:49.953Z,98557.92
2019-04-10T02:02:25.429Z,98559.05
2019-04-10T02:04:55.210Z,98562.16
2019-04-10T02:07:34.076Z,98561.21
2019-04-10T02:10:09.968Z,98557.41
2019-04-10T02:12:45.069Z,98560.89
2019-04-10T02:15:17.803Z,98561.83
2019-04-10T02:17:48.775Z,98559.47
2019-04-10T02:20:18.981Z,98555.52
2019-04-10T02:22:50.299Z,98546.59
2019-04-10T02:25:21.964Z,98550.24
2019-04-10T02:27:54.396Z,98550.92
2019-04-10T02:30:26.197Z,98547.84
2019-04-10T02:33:02.233Z,98552.98
2019-04-10T02:35:31.884Z,98545.64
2019-04-10T02:38:21.200Z,98548.38
2019-04-10T02:40:37.864Z,98554.77
2019-04-10T02:43:16.145Z,98551.22
2019-04-10T02:45:46.987Z,98544.54
2019-04-10T02:48:17.141Z,98553.67
2019-04-10T02:50:47.162Z,98556.95
2019-04-10T02:53:17.423Z,98554.53
2019-04-10T02:55:49.330Z,98550.48
2019-04-10T02:58:24.659Z,98549.14
2019-04-10T03:00:59.073Z,98546.59
2019-04-10T03:03:30.014Z,98549.50
2019-04-10T03:06:02.599Z,98554.05
2019-04-10T03:08:51.737Z,98545.77
2019-04-10T03:11:11.694Z,98553.37
2019-04-10T03:13:43.016Z,98551.85
2019-04-10T03:16:14.039Z,98541.31
2019-04-10T03:18:45.189Z,98548.11
2019-04-10T03:21:16.439Z,98548.68
2019-04-10T03:23:47.351Z,98548.29
2019-04-10T03:26:18.928Z,98543.64
2019-04-10T03:28:51.532Z,98543.44
2019-04-10T03:31:24.623Z,98543.50
2019-04-10T03:34:14.270Z,98542.47
2019-04-10T03:36:48.260Z,98547.55
2019-04-10T03:39:19.909Z,98543.72
2019-04-10T03:41:49.091Z,98548.27
2019-04-10T03:44:22.622Z,98558.54
2019-04-10T03:46:53.866Z,98555.72
2019-04-10T03:49:23.775Z,98553.13
2019-04-10T03:51:56.496Z,98553.55
2019-04-10T03:54:27.975Z,98561.92
2019-04-10T03:56:58.280Z,98557.65
2019-04-10T03:59:30.578Z,98558.81
2019-04-10T04:02:00.781Z,98556.78
2019-04-10T04:04:33.414Z,98557.25
2019-04-10T04:07:03.098Z,98558.38
2019-04-10T04:09:32.834Z,98565.75
2019-04-10T04:12:02.643Z,98561.08
2019-04-10T04:14:32.758Z,98556.38
2019-04-10T04:17:02.477Z,98555.09
2019-04-10T04:19:33.166Z,98564.88
2019-04-10T04:22:03.943Z,98563.52
2019-04-10T04:24:33.581Z,98556.75
2019-04-10T04:27:03.258Z,98554.41
2019-04-10T04:29:33.023Z,98557.69
2019-04-10T04:32:05.618Z,98553.52
2019-04-10T04:34:38.897Z,98554.21
2019-04-10T04:37:13.185Z,98564.30
2019-04-10T04:39:43.778Z,98562.37
2019-04-10T04:42:16.987Z,98562.17
2019-04-10T04:44:49.278Z,98566.34
2019-04-10T04:47:20.668Z,98571.16
2019-04-10T04:49:50.827Z,98565.81
2019-04-10T04:52:21.371Z,98575.53
2019-04-10T04:54:51.148Z,98578.97
2019-04-10T04:57:21.131Z,98583.28
2019-04-10T04:59:54.181Z,98587.58
2019-04-10T05:02:24.248Z,98585.27
2019-04-10T05:04:55.925Z,98579.19
2019-04-10T05:07:25.448Z,98584.19
2019-04-10T05:09:55.837Z,98587.58
2019-04-10T05:12:27.672Z,98591.08
2019-04-10T05:15:02.515Z,98596.40
2019-04-10T05:17:39.316Z,98604.39
2019-04-10T05:20:17.028Z,98600.75
2019-04-10T05:22:46.690Z,98605.89
2019-04-10T05:25:16.816Z,98608.81
2019-04-10T05:27:47.085Z,98610.88
2019-04-10T05:30:21.882Z,98613.27
2019-04-10T05:32:55.673Z,98615.99
2019-04-10T05:35:25.813Z,98625.57
2019-04-10T05:38:01.274Z,98623.94
2019-04-10T05:40:33.160Z,98621.22
2019-04-10T05:43:03.789Z,98624.85
2019-04-10T05:45:33.860Z,98630.47
2019-04-10T05:48:04.946Z,98634.06
2019-04-10T05:50:35.963Z,98635.58
2019-04-10T05:53:06.094Z,98635.56
2019-04-10T05:55:36.498Z,98636.83
2019-04-10T05:58:05.874Z,98636.89
2019-04-10T06:00:35.376Z,98641.02
2019-04-10T06:03:14.236Z,98646.14
2019-04-10T06:05:44.495Z,98642.91
2019-04-10T06:08:14.251Z,98634.44
2019-04-10T06:10:43.803Z,98642.67
2019-04-10T06:13:19.896Z,98641.30
2019-04-10T06:15:51.707Z,98649.05
2019-04-10T06:18:21.534Z,98644.69
2019-04-10T06:20:51.094Z,98646.09
2019-04-10T06:23:20.602Z,98648.67
2019-04-10T06:25:50.779Z,98644.68
2019-04-10T06:28:21.361Z,98649.63
2019-04-10T06:30:52.626Z,98645.06
2019-04-10T06:33:22.262Z,98651.98
2019-04-10T06:35:57.530Z,98652.27
2019-04-10T06:38:30.818Z,98651.99
2019-04-10T06:41:00.383Z,98659.17
2019-04-10T06:43:30.950Z,98659.64
2019-04-10T06:46:00.451Z,98653.63
2019-04-10T06:48:30.531Z,98655.81
2019-04-10T06:51:01.951Z,98659.42
2019-04-10T06:53:31.596Z,98654.53
2019-04-10T06:56:02.874Z,98646.55
2019-04-10T06:58:32.666Z,98654.75
2019-04-10T07:01:02.203Z,98648.54
2019-04-10T07:03:45.693Z,98658.80
2019-04-10T07:06:11.460Z,98657.19
2019-04-10T07:08:38.077Z,98660.20
2019-04-10T07:11:11.367Z,98662.50
2019-04-10T07:13:40.473Z,98667.37
2019-04-10T07:16:11.254Z,98661.84
2019-04-10T07:18:48.599Z,98665.88
2019-04-10T07:21:16.755Z,98673.14
2019-04-10T07:23:46.926Z,98665.41
2019-04-10T07:26:25.579Z,98670.69
2019-04-10T07:28:49.265Z,98673.33
2019-04-10T07:31:19.363Z,98668.52
2019-04-10T07:33:50.442Z,98663.98
2019-04-10T07:36:20.351Z,98663.81
2019-04-10T07:38:53.923Z,98669.77
2019-04-10T07:41:24.015Z,98667.66
2019-04-10T07:43:54.345Z,98673.63
2019-04-10T07:46:23.955Z,98676.13
2019-04-10T07:48:54.544Z,98673.05
2019-04-10T07:51:24.169Z,98674.67
2019-04-10T07:53:53.634Z,98681.31
2019-04-10T07:56:23.102Z,98687.69
2019-04-10T07:58:53.822Z,98683.00
2019-04-10T08:01:24.263Z,98680.67
2019-04-10T08:03:54.026Z,98683.07
2019-04-10T08:06:24.160Z,98681.33
2019-04-10T08:08:53.685Z,98683.92
2019-04-10T08:11:23.998Z,98687.97
2019-04-10T08:13:54.487Z,98696.78
2019-04-10T08:16:25.321Z,98698.29
2019-04-10T08:18:56.221Z,98698.22
2019-04-10T08:21:25.510Z,98695.64
2019-04-10T08:24:02.550Z,98690.24
2019-04-10T08:26:32.527Z,98698.88
2019-04-10T08:29:09.896Z,98697.53
2019-04-10T08:31:39.862Z,98692.48
2019-04-10T08:34:17.277Z,98688.73
2019-04-10T08:36:47.825Z,98689.19
2019-04-10T08:39:32.106Z,98694.00
2019-04-10T08:41:48.687Z,98681.87
2019-04-10T08:44:20.243Z,98693.01
2019-04-10T08:46:50.395Z,98697.97
2019-04-10T08:49:21.443Z,98683.98
2019-04-10T08:51:52.928Z,98694.23
2019-04-10T08:54:24.090Z,98692.66
2019-04-10T08:56:54.726Z,98702.03
2019-04-10T08:59:25.117Z,98696.66
2019-04-10T09:01:55.757Z,98702.55
2019-04-10T09:04:28.713Z,98698.78
2019-04-10T09:07:01.295Z,98698.09
2019-04-10T09:09:29.965Z,98695.20
2019-04-10T09:11:59.808Z,98703.94
2019-04-10T09:14:29.701Z,98700.91
2019-04-10T09:16:59.211Z,98699.59
2019-04-10T09:19:38.172Z,98705.14
2019-04-10T09:22:10.556Z,98700.66
2019-04-10T09:24:40.124Z,98699.23
2019-04-10T09:27:09.617Z,98695.25
2019-04-10T09:29:40.363Z,98701.23
2019-04-10T09:32:11.108Z,98702.10
2019-04-10T09:34:42.159Z,98696.39
2019-04-10T09:37:11.651Z,98700.40
2019-04-10T09:39:43.413Z,98703.19
2019-04-10T09:42:13.016Z,98705.85
2019-04-10T09:44:43.041Z,98699.19
2019-04-10T09:47:16.395Z,98708.52
2019-04-10T09:49:46.998Z,98702.48
2019-04-10T09:52:18.714Z,98707.41
2019-04-10T09:54:51.052Z,98708.64
2019-04-10T09:57:20.389Z,98705.36
2019-04-10T09:59:52.442Z,98711.72
2019-04-10T10:02:23.220Z,98713.43
2019-04-10T10:04:53.498Z,98709.24
2019-04-10T10:07:46.979Z,98711.68
2019-04-10T10:10:17.218Z,98705.81
2019-04-10T10:12:46.943Z,98702.31
2019-04-10T10:15:17.487Z,98698.73
2019-04-10T10:17:48.701Z,98698.14
2019-04-10T10:20:21.797Z,98701.76
2019-04-10T10:22:57.783Z,98691.36
2019-04-10T10:25:27.470Z,98694.88
2019-04-10T10:27:58.492Z,98694.76
2019-04-10T10:30:29.907Z,98688.66
2019-04-10T10:33:03.658Z,98700.23
2019-04-10T10:35:41.282Z,98691.73
2019-04-10T10:38:11.264Z,98689.12
2019-04-10T10:40:41.637Z,98683.73
2019-04-10T10:43:11.977Z,98690.66
2019-04-10T10:45:43.005Z,98693.44
2019-04-10T10:48:12.152Z,98686.92
2019-04-10T10:50:42.173Z,98692.82
2019-04-10T10:53:12.932Z,98694.33
2019-04-10T10:55:42.439Z,98694.00
2019-04-10T10:58:13.492Z,98686.26
2019-04-10T11:00:44.281Z,98687.27
2019-04-10T11:03:16.189Z,98678.36
2019-04-10T11:05:46.482Z,98685.58
2019-04-10T11:08:16.015Z,98675.80
2019-04-10T11:10:49.119Z,98684.45
2019-04-10T11:13:16.701Z,98680.17
2019-04-10T11:15:46.122Z,98678.12
2019-04-10T11:18:16.014Z,98676.09
2019-04-10T11:20:45.235Z,98680.91
2019-04-10T11:23:14.573Z,98683.94
2019-04-10T11:25:46.387Z,98683.55
2019-04-10T11:28:16.279Z,98680.16
2019-04-10T11:30:47.278Z,98686.19
2019-04-10T11:33:17.625Z,98688.05
2019-04-10T11:35:51.397Z,98677.02
2019-04-10T11:38:25.656Z,98685.95
2019-04-10T11:40:59.940Z,98694.20
2019-04-10T11:43:30.217Z,98689.77
2019-04-10T11:46:02.587Z,98691.80
2019-04-10T11:48:32.230Z,98693.31
2019-04-10T11:51:06.532Z,98691.84
2019-04-10T11:53:41.756Z,98693.46
2019-04-10T11:56:13.044Z,98700.35
2019-04-10T12:01:14.033Z,98702.34
2019-04-10T12:03:50.430Z,98706.53
2019-04-10T12:06:20.761Z,98704.67
2019-04-10T12:09:13.655Z,98696.45
2019-04-10T12:11:23.012Z,98700.66
2019-04-10T12:13:52.224Z,98699.80
2019-04-10T12:16:23.074Z,98703.45
2019-04-10T12:18:55.845Z,98698.98
2019-04-10T12:21:27.578Z,98708.73
2019-04-10T12:23:58.873Z,98706.33
2019-04-10T12:26:28.884Z,98700.76
2019-04-10T12:29:00.894Z,98706.10
2019-04-10T12:31:30.891Z,98712.57
2019-04-10T12:34:01.853Z,98702.73
2019-04-10T12:36:34.355Z,98707.53
2019-04-10T12:39:07.902Z,98708.66
2019-04-10T12:41:39.429Z,98711.44
2019-04-10T12:44:13.613Z,98710.86
2019-04-10T12:46:46.408Z,98709.61
2019-04-10T12:49:15.719Z,98713.78
2019-04-10T12:51:45.823Z,98719.14
2019-04-10T12:54:17.586Z,98715.19
2019-04-10T12:56:48.745Z,98715.08
2019-04-10T12:59:25.695Z,98717.00
2019-04-10T13:01:57.368Z,98717.20
2019-04-10T13:04:30.260Z,98722.64
2019-04-10T13:07:00.880Z,98714.61
2019-04-10T13:09:31.882Z,98721.78
2019-04-10T13:12:04.891Z,98720.06
2019-04-10T13:14:34.883Z,98716.33
2019-04-10T13:17:04.745Z,98724.69
2019-04-10T13:19:39.600Z,98719.36
2019-04-10T13:22:11.670Z,98725.86
2019-04-10T13:24:43.784Z,98719.31
2019-04-10T13:27:19.006Z,98721.28
2019-04-10T13:29:48.837Z,98733.88
2019-04-10T13:32:18.299Z,98715.09
2019-04-10T13:34:49.098Z,98716.16
2019-04-10T13:37:22.607Z,98720.59
2019-04-10T13:39:52.819Z,98718.53
2019-04-10T13:42:34.344Z,98714.13
2019-04-10T13:45:04.631Z,98712.45
2019-04-10T13:47:36.650Z,98720.11
2019-04-10T13:50:08.601Z,98712.85
2019-04-10T13:52:40.562Z,98714.41
2019-04-10T13:55:13.122Z,98712.62
2019-04-10T13:57:46.542Z,98705.37
2019-04-10T14:00:28.240Z,98711.41
2019-04-10T14:02:58.615Z,98720.48
2019-04-10T14:05:31.924Z,98711.07
2019-04-10T14:08:02.023Z,98721.44
2019-04-10T14:10:33.106Z,98721.68
2019-04-10T14:13:03.223Z,98728.52
2019-04-10T14:15:35.906Z,98722.78
2019-04-10T14:18:06.553Z,98725.08
2019-04-10T14:20:36.130Z,98725.15
2019-04-10T14:23:23.484Z,98721.52
2019-04-10T14:25:58.836Z,98721.77
2019-04-10T14:28:29.147Z,98727.87
2019-04-10T14:31:05.783Z,98729.27
2019-04-10T14:33:35.820Z,98733.06
2019-04-10T14:36:07.578Z,98735.41
2019-04-10T14:38:41.174Z,98742.16
2019-04-10T14:41:20.027Z,98740.61
2019-04-10T14:43:50.133Z,98743.91
2019-04-10T14:46:20.675Z,98742.46
2019-04-10T14:48:52.291Z,98741.22
2019-04-10T14:51:24.425Z,98745.70
2019-04-10T14:53:55.315Z,98749.27
2019-04-10T14:56:28.839Z,98740.16
2019-04-10T14:58:59.600Z,98743.27
2019-04-10T15:01:32.026Z,98746.17
2019-04-10T15:04:03.014Z,98752.59
2019-04-10T15:06:33.382Z,98744.53
2019-04-10T15:09:04.143Z,98751.47
2019-04-10T15:11:33.577Z,98754.45
2019-04-10T15:14:05.511Z,98745.95
2019-04-10T15:16:36.900Z,98754.70
2019-04-10T15:19:06.583Z,98747.39
2019-04-10T15:21:36.661Z,98748.47
2019-04-10T15:24:07.343Z,98751.48
2019-04-10T15:26:40.751Z,98749.52
2019-04-10T15:29:12.219Z,98752.93
2019-04-10T15:31:41.845Z,98751.96
2019-04-10T15:34:11.951Z,98757.45
2019-04-10T15:36:46.436Z,98767.22
2019-04-10T15:39:16.890Z,98761.38
2019-04-10T15:41:46.104Z,98767.13
2019-04-10T15:44:16.646Z,98766.93
2019-04-10T15:46:47.356Z,98758.54
2019-04-10T15:49:17.786Z,98763.27
2019-04-10T15:51:49.756Z,98765.98
2019-04-10T15:54:24.144Z,98761.83
2019-04-10T15:56:54.177Z,98762.52
2019-04-10T15:59:25.371Z,98773.21
2019-04-10T16:01:55.287Z,98770.39
2019-04-10T16:04:25.525Z,98771.95
2019-04-10T16:06:56.017Z,98766.58
2019-04-10T16:09:28.088Z,98770.17
2019-04-10T16:12:18.604Z,98775.88
2019-04-10T16:14:55.062Z,98771.20
2019-04-10T16:17:41.932Z,98772.88
2019-04-10T16:20:33.616Z,98772.97
2019-04-10T16:23:28.900Z,98776.41
2019-04-10T16:25:58.628Z,98782.10
2019-04-10T16:28:29.421Z,98781.21
2019-04-10T16:31:01.328Z,98777.73
2019-04-10T16:33:32.031Z,98780.39
2019-04-10T16:36:05.250Z,98779.27
2019-04-10T16:38:36.375Z,98781.45
2019-04-10T16:41:05.800Z,98781.78
2019-04-10T16:43:36.264Z,98786.44
2019-04-10T16:46:07.024Z,98790.75
2019-04-10T16:48:38.364Z,98793.64
2019-04-10T16:51:07.996Z,98795.73
2019-04-10T16:53:41.252Z,98797.58
2019-04-10T16:56:11.901Z,98803.16
2019-04-10T16:58:42.489Z,98808.02
2019-04-10T17:01:18.188Z,98798.47
2019-04-10T17:03:47.748Z,98803.70
2019-04-10T17:06:30.340Z,98800.12
2019-04-10T17:09:00.665Z,98808.48
2019-04-10T17:11:33.414Z,98815.91
2019-04-10T17:14:04.819Z,98810.67
2019-04-10T17:16:35.749Z,98815.23
2019-04-10T17:19:09.900Z,98814.70
2019-04-10T17:21:42.600Z,98813.52
2019-04-10T17:24:13.284Z,98819.23
2019-04-10T17:26:43.428Z,98821.19
2019-04-10T17:29:16.702Z,98830.27
2019-04-10T17:31:47.250Z,98832.33
2019-04-10T17:34:16.989Z,98837.84
2019-04-10T17:36:47.339Z,98834.46
2019-04-10T17:39:19.745Z,98845.18
2019-04-10T17:41:56.073Z,98846.09
2019-04-10T17:44:26.484Z,98841.89
2019-04-10T17:46:55.763Z,98842.59
2019-04-10T17:49:25.638Z,98852.95
2019-04-10T17:51:54.861Z,98852.13
2019-04-10T17:54:29.851Z,98860.72
2019-04-10T17:57:00.338Z,98867.38
2019-04-10T17:59:30.598Z,98868.79
2019-04-10T18:02:02.200Z,98878.95
2019-04-10T18:04:33.898Z,98881.02
2019-04-10T18:07:05.890Z,98885.19
2019-04-10T18:09:38.842Z,98886.44
2019-04-10T18:12:10.260Z,98886.69
2019-04-10T18:14:42.454Z,98896.81
2019-04-10T18:17:14.471Z,98899.90
2019-04-10T18:19:46.189Z,98896.01
2019-04-10T18:22:15.438Z,98906.51
2019-04-10T18:24:45.421Z,98911.13
2019-04-10T18:27:14.935Z,98910.52
2019-04-10T18:29:45.526Z,98913.18
2019-04-10T18:32:15.822Z,98909.78
2019-04-10T18:34:46.474Z,98920.05
2019-04-10T18:37:19.143Z,98923.67
2019-04-10T18:39:57.046Z,98919.11
2019-04-10T18:42:28.783Z,98928.08
2019-04-10T18:44:59.439Z,98931.24
2019-04-10T18:47:32.327Z,98935.69
2019-04-10T18:50:22.377Z,98941.00
2019-04-10T18:52:51.982Z,98941.00
2019-04-10T18:55:23.243Z,98947.88
2019-04-10T18:57:54.839Z,98950.87
2019-04-10T19:00:43.455Z,98958.23
2019-04-10T19:03:29.640Z,98962.73
2019-04-10T19:06:02.597Z,98966.48
2019-04-10T19:09:04.981Z,98962.89
2019-04-10T19:11:26.796Z,98962.84
2019-04-10T19:13:55.442Z,98975.20
2019-04-10T19:16:27.649Z,98974.72
2019-04-10T19:18:57.237Z,98978.99
2019-04-10T19:21:27.995Z,98984.91
2019-04-10T19:24:00.110Z,98993.45
2019-04-10T19:26:33.917Z,98993.42
2019-04-10T19:29:07.515Z,98997.06
2019-04-10T19:31:38.781Z,98995.73
2019-04-10T19:34:09.707Z,98997.59
2019-04-10T19:36:42.134Z,99005.54
2019-04-10T19:39:12.595Z,99006.53
2019-04-10T19:41:46.992Z,99005.63
2019-04-10T19:44:21.140Z,99013.70
2019-04-10T19:46:50.989Z,99011.77
2019-04-10T19:49:20.377Z,99008.76
2019-04-10T19:51:51.831Z,99012.31
2019-04-10T19:54:41.256Z,99015.47
2019-04-10T19:57:13.476Z,99023.09
2019-04-10T19:59:44.078Z,99023.28
2019-04-10T20:02:15.052Z,99031.19
2019-04-10T20:04:45.715Z,99021.70
2019-04-10T20:07:16.574Z,99031.66
2019-04-10T20:09:46.467Z,99029.42
2019-04-10T20:12:18.212Z,99038.31
2019-04-10T20:14:51.026Z,99033.03
2019-04-10T20:17:24.057Z,99037.56
2019-04-10T20:19:57.170Z,99037.58
2019-04-10T20:22:30.706Z,99039.47
2019-04-10T20:25:02.218Z,99046.26
2019-04-10T20:27:32.041Z,99051.28
2019-04-10T20:30:01.945Z,99051.91
2019-04-10T20:32:32.324Z,99058.05
2019-04-10T20:35:02.363Z,99056.36
2019-04-10T20:37:39.960Z,99057.13
2019-04-10T20:40:11.924Z,99058.48
2019-04-10T20:42:43.203Z,99064.55
2019-04-10T20:45:14.220Z,99060.51
2019-04-10T20:47:44.650Z,99064.64
2019-04-10T20:50:15.418Z,99072.32
2019-04-10T20:52:47.251Z,99066.55
2019-04-10T20:55:17.566Z,99067.02
2019-04-10T20:57:49.989Z,99069.95
2019-04-10T21:00:30.121Z,99070.77
2019-04-10T21:03:01.469Z,99073.63
2019-04-10T21:05:33.752Z,99076.25
2019-04-10T21:08:06.569Z,99074.62
2019-04-10T21:10:38.734Z,99087.28
2019-04-10T21:13:08.693Z,99087.94
2019-04-10T21:15:42.216Z,99089.19
2019-04-10T21:18:34.269Z,99086.82
2019-04-10T21:21:03.954Z,99096.69
2019-04-10T21:23:34.288Z,99090.41
2019-04-10T21:26:06.058Z,99102.85
2019-04-10T21:28:48.334Z,99093.24
2019-04-10T21:31:43.307Z,99100.30
2019-04-10T21:34:30.439Z,99102.58
2019-04-10T21:37:08.408Z,99105.50
2019-04-10T21:39:38.262Z,99110.27
2019-04-10T21:42:18.607Z,99111.34
2019-04-10T21:44:45.017Z,99113.52
2019-04-10T21:47:14.441Z,99110.91
2019-04-10T21:49:46.276Z,99118.91
2019-04-10T21:52:16.635Z,99121.73
2019-04-10T21:54:51.059Z,99122.79
2019-04-10T21:57:18.108Z,99113.84
2019-04-10T21:59:47.602Z,99125.30
2019-04-10T22:02:19.886Z,99122.91
2019-04-10T22:04:49.817Z,99119.96
2019-04-10T22:07:48.688Z,99134.50
2019-04-10T22:10:48.400Z,99126.45
2019-04-10T22:13:20.504Z,99128.94
2019-04-10T22:15:53.641Z,99131.59
2019-04-10T22:18:23.358Z,99124.94
2019-04-10T22:20:54.585Z,99134.89
2019-04-10T22:23:27.232Z,99128.77
2019-04-10T22:25:56.804Z,99132.14
2019-04-10T22:28:26.432Z,99130.61
2019-04-10T22:31:18.133Z,99132.45
2019-04-10T22:33:47.518Z,99138.34
2019-04-10T22:36:24.845Z,99147.81
2019-04-10T22:39:04.784Z,99145.48
2019-04-10T22:41:38.527Z,99140.05
2019-04-10T22:44:08.244Z,99148.45
2019-04-10T22:46:42.495Z,99151.81
2019-04-10T22:49:12.429Z,99154.06
2019-04-10T22:51:42.188Z,99158.81
2019-04-10T22:54:13.068Z,99157.88
2019-04-10T22:56:42.347Z,99159.56
2019-04-10T22:59:12.119Z,99152.20
2019-04-10T23:01:43.249Z,99157.22
2019-04-10T23:04:14.801Z,99155.50
2019-04-10T23:06:45.662Z,99162.77
2019-04-10T23:09:15.928Z,99157.48
2019-04-10T23:11:46.877Z,99161.32
2019-04-10T23:14:16.923Z,99155.72
2019-04-10T23:16:48.417Z,99158.66
2019-04-10T23:19:18.334Z,99158.84
2019-04-10T23:21:49.135Z,99152.19
2019-04-10T23:24:21.274Z,99153.02
2019-04-10T23:26:51.538Z,99158.00
2019-04-10T23:29:22.269Z,99165.16
2019-04-10T23:31:52.066Z,99161.77
2019-04-10T23:34:23.528Z,99163.16
2019-04-10T23:36:56.142Z,99164.89
2019-04-10T23:39:26.366Z,99159.20
2019-04-10T23:41:57.022Z,99165.66
2019-04-10T23:44:27.012Z,99166.31
2019-04-10T23:46:56.273Z,99168.13
2019-04-10T23:49:28.271Z,99170.48
2019-04-10T23:51:59.133Z,99171.84
2019-04-10T23:54:29.543Z,99176.66
2019-04-10T23:57:01.044Z,99172.85
2019-04-10T23:59:32.984Z,99176.20
